sensor_id;sensor_type;location;lat;lon;timestamp;P1;durP1;ratioP1;P2;durP2;ratioP2
61210;SDS011;47075;45.114;20.738;2022-12-31T00:01:21;52.00;;;34.47;;
61210;SDS011;47075;45.114;20.738;2022-12-31T00:03:47;50.60;;;34.05;;
61210;SDS011;47075;45.114;20.738;2022-12-31T00:06:15;52.58;;;35.10;;
61210;SDS011;47075;45.114;20.738;2022-12-31T00:08:42;54.13;;;36.17;;
61210;SDS011;47075;45.114;20.738;2022-12-31T00:11:08;54.22;;;34.47;;
61210;SDS011;47075;45.114;20.738;2022-12-31T00:13:34;51.95;;;35.30;;
61210;SDS011;47075;45.114;20.738;2022-12-31T00:16:05;61.08;;;43.10;;
61210;SDS011;47075;45.114;20.738;2022-12-31T00:18:31;72.05;;;49.22;;
61210;SDS011;47075;45.114;20.738;2022-12-31T00:20:57;57.08;;;38.25;;
61210;SDS011;47075;45.114;20.738;2022-12-31T00:23:23;56.22;;;36.88;;
61210;SDS011;47075;45.114;20.738;2022-12-31T00:25:49;61.42;;;39.83;;
61210;SDS011;47075;45.114;20.738;2022-12-31T00:28:15;57.30;;;37.83;;
61210;SDS011;47075;45.114;20.738;2022-12-31T00:30:41;59.25;;;39.17;;
61210;SDS011;47075;45.114;20.738;2022-12-31T00:33:07;54.97;;;37.45;;
61210;SDS011;47075;45.114;20.738;2022-12-31T00:35:33;56.75;;;37.45;;
61210;SDS011;47075;45.114;20.738;2022-12-31T00:38:00;59.60;;;37.63;;
61210;SDS011;47075;45.114;20.738;2022-12-31T00:40:27;61.42;;;37.00;;
61210;SDS011;47075;45.114;20.738;2022-12-31T00:42:54;57.85;;;36.30;;
61210;SDS011;47075;45.114;20.738;2022-12-31T00:45:20;55.55;;;36.95;;
61210;SDS011;47075;45.114;20.738;2022-12-31T00:47:46;55.58;;;34.75;;
61210;SDS011;47075;45.114;20.738;2022-12-31T00:50:12;57.60;;;36.45;;
61210;SDS011;47075;45.114;20.738;2022-12-31T00:52:38;55.45;;;36.38;;
61210;SDS011;47075;45.114;20.738;2022-12-31T00:55:04;58.58;;;37.53;;
61210;SDS011;47075;45.114;20.738;2022-12-31T00:57:30;54.67;;;34.50;;
61210;SDS011;47075;45.114;20.738;2022-12-31T00:59:56;54.72;;;34.33;;
61210;SDS011;47075;45.114;20.738;2022-12-31T01:02:23;51.00;;;34.67;;
61210;SDS011;47075;45.114;20.738;2022-12-31T01:04:49;53.58;;;33.47;;
61210;SDS011;47075;45.114;20.738;2022-12-31T01:07:15;50.67;;;33.33;;
61210;SDS011;47075;45.114;20.738;2022-12-31T01:09:41;51.42;;;33.83;;
61210;SDS011;47075;45.114;20.738;2022-12-31T01:12:07;56.22;;;34.65;;
61210;SDS011;47075;45.114;20.738;2022-12-31T01:14:33;55.88;;;36.03;;
61210;SDS011;47075;45.114;20.738;2022-12-31T01:16:59;54.58;;;35.35;;
61210;SDS011;47075;45.114;20.738;2022-12-31T01:19:26;52.65;;;34.80;;
61210;SDS011;47075;45.114;20.738;2022-12-31T01:21:53;54.65;;;35.42;;
61210;SDS011;47075;45.114;20.738;2022-12-31T01:24:20;51.70;;;34.47;;
61210;SDS011;47075;45.114;20.738;2022-12-31T01:26:46;52.35;;;34.38;;
61210;SDS011;47075;45.114;20.738;2022-12-31T01:29:12;54.17;;;34.13;;
61210;SDS011;47075;45.114;20.738;2022-12-31T01:31:40;52.35;;;33.40;;
61210;SDS011;47075;45.114;20.738;2022-12-31T01:34:07;56.17;;;34.72;;
61210;SDS011;47075;45.114;20.738;2022-12-31T01:36:34;50.88;;;33.78;;
61210;SDS011;47075;45.114;20.738;2022-12-31T01:39:00;55.17;;;34.10;;
61210;SDS011;47075;45.114;20.738;2022-12-31T01:41:31;50.53;;;33.47;;
61210;SDS011;47075;45.114;20.738;2022-12-31T01:43:58;52.03;;;33.53;;
61210;SDS011;47075;45.114;20.738;2022-12-31T01:46:32;53.67;;;33.35;;
61210;SDS011;47075;45.114;20.738;2022-12-31T01:49:01;50.13;;;32.97;;
61210;SDS011;47075;45.114;20.738;2022-12-31T01:51:29;52.65;;;33.40;;
61210;SDS011;47075;45.114;20.738;2022-12-31T01:53:57;51.22;;;33.85;;
61210;SDS011;47075;45.114;20.738;2022-12-31T01:56:25;49.20;;;32.03;;
61210;SDS011;47075;45.114;20.738;2022-12-31T01:58:51;51.65;;;32.25;;
61210;SDS011;47075;45.114;20.738;2022-12-31T02:01:20;47.90;;;31.80;;
61210;SDS011;47075;45.114;20.738;2022-12-31T02:03:49;48.55;;;32.33;;
61210;SDS011;47075;45.114;20.738;2022-12-31T02:06:17;49.47;;;32.22;;
61210;SDS011;47075;45.114;20.738;2022-12-31T02:08:44;45.83;;;31.27;;
61210;SDS011;47075;45.114;20.738;2022-12-31T02:11:31;49.83;;;32.85;;
61210;SDS011;47075;45.114;20.738;2022-12-31T02:14:01;52.38;;;33.10;;
61210;SDS011;47075;45.114;20.738;2022-12-31T02:30:00;51.97;;;33.63;;
61210;SDS011;47075;45.114;20.738;2022-12-31T02:35:59;53.40;;;33.15;;
61210;SDS011;47075;45.114;20.738;2022-12-31T02:38:13;48.60;;;32.85;;
61210;SDS011;47075;45.114;20.738;2022-12-31T02:40:39;51.90;;;33.63;;
61210;SDS011;47075;45.114;20.738;2022-12-31T02:43:06;49.63;;;33.35;;
61210;SDS011;47075;45.114;20.738;2022-12-31T02:45:42;53.17;;;34.13;;
61210;SDS011;47075;45.114;20.738;2022-12-31T02:48:19;54.50;;;34.10;;
61210;SDS011;47075;45.114;20.738;2022-12-31T02:56:08;53.03;;;34.25;;
61210;SDS011;47075;45.114;20.738;2022-12-31T03:01:40;53.90;;;34.30;;
61210;SDS011;47075;45.114;20.738;2022-12-31T03:04:27;54.58;;;34.78;;
61210;SDS011;47075;45.114;20.738;2022-12-31T03:07:05;48.97;;;33.13;;
61210;SDS011;47075;45.114;20.738;2022-12-31T03:09:31;50.60;;;34.85;;
61210;SDS011;47075;45.114;20.738;2022-12-31T03:11:58;55.13;;;34.53;;
61210;SDS011;47075;45.114;20.738;2022-12-31T03:14:42;52.10;;;35.90;;
61210;SDS011;47075;45.114;20.738;2022-12-31T03:17:09;53.13;;;32.70;;
61210;SDS011;47075;45.114;20.738;2022-12-31T03:19:35;53.13;;;34.25;;
61210;SDS011;47075;45.114;20.738;2022-12-31T03:22:19;51.38;;;33.58;;
61210;SDS011;47075;45.114;20.738;2022-12-31T03:24:52;53.72;;;33.92;;
61210;SDS011;47075;45.114;20.738;2022-12-31T03:27:37;49.03;;;33.25;;
61210;SDS011;47075;45.114;20.738;2022-12-31T03:30:03;51.20;;;34.78;;
61210;SDS011;47075;45.114;20.738;2022-12-31T03:32:29;48.83;;;32.72;;
61210;SDS011;47075;45.114;20.738;2022-12-31T03:34:55;51.35;;;33.22;;
61210;SDS011;47075;45.114;20.738;2022-12-31T03:37:21;51.97;;;32.58;;
61210;SDS011;47075;45.114;20.738;2022-12-31T03:39:47;50.15;;;33.10;;
61210;SDS011;47075;45.114;20.738;2022-12-31T03:42:13;53.47;;;33.13;;
61210;SDS011;47075;45.114;20.738;2022-12-31T03:44:39;48.83;;;31.88;;
61210;SDS011;47075;45.114;20.738;2022-12-31T03:47:05;49.13;;;31.63;;
61210;SDS011;47075;45.114;20.738;2022-12-31T03:49:32;50.13;;;32.45;;
61210;SDS011;47075;45.114;20.738;2022-12-31T03:51:58;50.40;;;32.35;;
61210;SDS011;47075;45.114;20.738;2022-12-31T03:54:24;51.28;;;31.20;;
61210;SDS011;47075;45.114;20.738;2022-12-31T03:56:50;50.17;;;30.95;;
61210;SDS011;47075;45.114;20.738;2022-12-31T03:59:16;51.67;;;32.55;;
61210;SDS011;47075;45.114;20.738;2022-12-31T04:01:42;48.10;;;31.10;;
61210;SDS011;47075;45.114;20.738;2022-12-31T04:04:08;47.53;;;30.08;;
61210;SDS011;47075;45.114;20.738;2022-12-31T04:06:34;47.60;;;30.42;;
61210;SDS011;47075;45.114;20.738;2022-12-31T04:09:00;48.47;;;30.13;;
61210;SDS011;47075;45.114;20.738;2022-12-31T04:11:26;46.40;;;29.83;;
61210;SDS011;47075;45.114;20.738;2022-12-31T04:13:53;46.10;;;30.17;;
61210;SDS011;47075;45.114;20.738;2022-12-31T04:16:19;45.95;;;29.83;;
61210;SDS011;47075;45.114;20.738;2022-12-31T04:18:45;47.05;;;29.42;;
61210;SDS011;47075;45.114;20.738;2022-12-31T04:21:11;41.90;;;29.58;;
61210;SDS011;47075;45.114;20.738;2022-12-31T04:23:37;41.20;;;28.75;;
61210;SDS011;47075;45.114;20.738;2022-12-31T04:26:03;42.45;;;27.98;;
61210;SDS011;47075;45.114;20.738;2022-12-31T04:28:29;43.22;;;27.75;;
61210;SDS011;47075;45.114;20.738;2022-12-31T04:30:55;43.13;;;28.58;;
61210;SDS011;47075;45.114;20.738;2022-12-31T04:33:21;45.17;;;28.70;;
61210;SDS011;47075;45.114;20.738;2022-12-31T04:35:47;42.03;;;28.42;;
61210;SDS011;47075;45.114;20.738;2022-12-31T04:38:13;40.38;;;26.77;;
61210;SDS011;47075;45.114;20.738;2022-12-31T04:40:40;45.53;;;28.13;;
61210;SDS011;47075;45.114;20.738;2022-12-31T04:43:26;42.40;;;27.60;;
61210;SDS011;47075;45.114;20.738;2022-12-31T04:45:52;43.25;;;27.35;;
61210;SDS011;47075;45.114;20.738;2022-12-31T04:48:18;43.67;;;27.48;;
61210;SDS011;47075;45.114;20.738;2022-12-31T04:50:45;42.20;;;28.10;;
61210;SDS011;47075;45.114;20.738;2022-12-31T04:53:11;41.78;;;26.98;;
61210;SDS011;47075;45.114;20.738;2022-12-31T04:55:39;42.58;;;27.58;;
61210;SDS011;47075;45.114;20.738;2022-12-31T04:58:05;41.83;;;26.15;;
61210;SDS011;47075;45.114;20.738;2022-12-31T05:00:31;40.60;;;27.27;;
61210;SDS011;47075;45.114;20.738;2022-12-31T05:02:57;41.17;;;27.55;;
61210;SDS011;47075;45.114;20.738;2022-12-31T05:05:23;42.95;;;27.25;;
61210;SDS011;47075;45.114;20.738;2022-12-31T05:07:49;40.47;;;27.25;;
61210;SDS011;47075;45.114;20.738;2022-12-31T05:10:15;38.08;;;25.67;;
61210;SDS011;47075;45.114;20.738;2022-12-31T05:12:42;40.97;;;27.42;;
61210;SDS011;47075;45.114;20.738;2022-12-31T05:15:08;40.35;;;28.23;;
61210;SDS011;47075;45.114;20.738;2022-12-31T05:17:34;41.33;;;26.30;;
61210;SDS011;47075;45.114;20.738;2022-12-31T05:20:00;45.33;;;29.23;;
61210;SDS011;47075;45.114;20.738;2022-12-31T05:22:26;42.00;;;27.63;;
61210;SDS011;47075;45.114;20.738;2022-12-31T05:24:52;41.83;;;28.15;;
61210;SDS011;47075;45.114;20.738;2022-12-31T05:27:19;43.70;;;28.38;;
61210;SDS011;47075;45.114;20.738;2022-12-31T05:29:45;42.83;;;27.33;;
61210;SDS011;47075;45.114;20.738;2022-12-31T05:32:11;42.35;;;28.35;;
61210;SDS011;47075;45.114;20.738;2022-12-31T05:34:37;45.13;;;28.83;;
61210;SDS011;47075;45.114;20.738;2022-12-31T05:37:03;45.15;;;27.70;;
61210;SDS011;47075;45.114;20.738;2022-12-31T05:39:29;43.17;;;28.30;;
61210;SDS011;47075;45.114;20.738;2022-12-31T05:41:55;39.15;;;24.77;;
61210;SDS011;47075;45.114;20.738;2022-12-31T05:44:21;39.58;;;27.13;;
61210;SDS011;47075;45.114;20.738;2022-12-31T05:46:47;43.60;;;26.33;;
61210;SDS011;47075;45.114;20.738;2022-12-31T05:49:13;38.97;;;25.75;;
61210;SDS011;47075;45.114;20.738;2022-12-31T05:51:40;43.63;;;27.38;;
61210;SDS011;47075;45.114;20.738;2022-12-31T05:54:06;38.08;;;24.38;;
61210;SDS011;47075;45.114;20.738;2022-12-31T05:56:32;42.70;;;26.23;;
61210;SDS011;47075;45.114;20.738;2022-12-31T05:58:58;40.25;;;25.60;;
61210;SDS011;47075;45.114;20.738;2022-12-31T06:01:24;42.17;;;27.35;;
61210;SDS011;47075;45.114;20.738;2022-12-31T06:03:50;38.42;;;26.33;;
61210;SDS011;47075;45.114;20.738;2022-12-31T06:06:16;36.58;;;24.42;;
61210;SDS011;47075;45.114;20.738;2022-12-31T06:08:42;40.03;;;25.95;;
61210;SDS011;47075;45.114;20.738;2022-12-31T06:11:08;41.33;;;25.30;;
61210;SDS011;47075;45.114;20.738;2022-12-31T06:13:34;38.83;;;26.05;;
61210;SDS011;47075;45.114;20.738;2022-12-31T06:16:05;39.75;;;26.02;;
61210;SDS011;47075;45.114;20.738;2022-12-31T06:18:31;37.10;;;25.30;;
61210;SDS011;47075;45.114;20.738;2022-12-31T06:20:57;38.58;;;25.33;;
61210;SDS011;47075;45.114;20.738;2022-12-31T06:23:23;38.42;;;25.33;;
61210;SDS011;47075;45.114;20.738;2022-12-31T06:25:49;37.45;;;25.10;;
61210;SDS011;47075;45.114;20.738;2022-12-31T06:28:16;37.85;;;24.50;;
61210;SDS011;47075;45.114;20.738;2022-12-31T06:30:42;34.30;;;24.23;;
61210;SDS011;47075;45.114;20.738;2022-12-31T06:33:08;35.53;;;24.80;;
61210;SDS011;47075;45.114;20.738;2022-12-31T06:35:34;36.53;;;24.10;;
61210;SDS011;47075;45.114;20.738;2022-12-31T06:38:00;39.08;;;24.42;;
61210;SDS011;47075;45.114;20.738;2022-12-31T06:40:26;35.92;;;23.75;;
61210;SDS011;47075;45.114;20.738;2022-12-31T06:42:52;37.90;;;23.33;;
61210;SDS011;47075;45.114;20.738;2022-12-31T06:45:19;36.50;;;23.33;;
61210;SDS011;47075;45.114;20.738;2022-12-31T06:47:45;34.60;;;22.80;;
61210;SDS011;47075;45.114;20.738;2022-12-31T06:50:11;35.42;;;23.50;;
61210;SDS011;47075;45.114;20.738;2022-12-31T06:52:37;37.67;;;24.50;;
61210;SDS011;47075;45.114;20.738;2022-12-31T06:55:03;36.42;;;24.30;;
61210;SDS011;47075;45.114;20.738;2022-12-31T06:57:30;36.38;;;24.63;;
61210;SDS011;47075;45.114;20.738;2022-12-31T06:59:56;35.97;;;23.98;;
61210;SDS011;47075;45.114;20.738;2022-12-31T07:02:32;33.92;;;24.35;;
61210;SDS011;47075;45.114;20.738;2022-12-31T07:08:11;35.75;;;24.63;;
61210;SDS011;47075;45.114;20.738;2022-12-31T07:21:02;32.78;;;22.38;;
61210;SDS011;47075;45.114;20.738;2022-12-31T07:23:28;30.25;;;21.38;;
61210;SDS011;47075;45.114;20.738;2022-12-31T07:26:05;32.53;;;22.00;;
61210;SDS011;47075;45.114;20.738;2022-12-31T07:28:41;31.27;;;22.35;;
61210;SDS011;47075;45.114;20.738;2022-12-31T07:31:21;29.45;;;21.17;;
61210;SDS011;47075;45.114;20.738;2022-12-31T07:34:00;33.70;;;21.50;;
61210;SDS011;47075;45.114;20.738;2022-12-31T07:46:53;31.02;;;21.55;;
61210;SDS011;47075;45.114;20.738;2022-12-31T07:49:19;30.00;;;21.10;;
61210;SDS011;47075;45.114;20.738;2022-12-31T07:51:46;33.03;;;21.80;;
61210;SDS011;47075;45.114;20.738;2022-12-31T07:54:12;30.50;;;21.60;;
61210;SDS011;47075;45.114;20.738;2022-12-31T07:56:38;29.10;;;21.52;;
61210;SDS011;47075;45.114;20.738;2022-12-31T08:01:47;31.92;;;21.80;;
61210;SDS011;47075;45.114;20.738;2022-12-31T08:04:17;32.50;;;23.05;;
61210;SDS011;47075;45.114;20.738;2022-12-31T08:14:16;35.70;;;22.10;;
61210;SDS011;47075;45.114;20.738;2022-12-31T08:16:43;31.00;;;21.85;;
61210;SDS011;47075;45.114;20.738;2022-12-31T08:19:29;30.25;;;21.08;;
61210;SDS011;47075;45.114;20.738;2022-12-31T08:26:56;29.30;;;19.80;;
61210;SDS011;47075;45.114;20.738;2022-12-31T08:31:57;34.33;;;23.10;;
61210;SDS011;47075;45.114;20.738;2022-12-31T08:37:14;31.35;;;22.20;;
61210;SDS011;47075;45.114;20.738;2022-12-31T08:42:38;31.15;;;22.23;;
61210;SDS011;47075;45.114;20.738;2022-12-31T08:45:13;34.80;;;22.35;;
61210;SDS011;47075;45.114;20.738;2022-12-31T08:47:57;33.78;;;22.00;;
61210;SDS011;47075;45.114;20.738;2022-12-31T08:50:26;28.27;;;20.80;;
61210;SDS011;47075;45.114;20.738;2022-12-31T08:52:52;32.67;;;22.52;;
61210;SDS011;47075;45.114;20.738;2022-12-31T08:55:18;33.05;;;23.08;;
61210;SDS011;47075;45.114;20.738;2022-12-31T08:57:52;32.65;;;21.98;;
61210;SDS011;47075;45.114;20.738;2022-12-31T09:00:23;30.48;;;21.15;;
61210;SDS011;47075;45.114;20.738;2022-12-31T09:05:24;30.05;;;21.55;;
61210;SDS011;47075;45.114;20.738;2022-12-31T09:10:20;32.33;;;20.15;;
61210;SDS011;47075;45.114;20.738;2022-12-31T09:12:51;28.80;;;19.98;;
61210;SDS011;47075;45.114;20.738;2022-12-31T09:17:45;31.40;;;20.50;;
61210;SDS011;47075;45.114;20.738;2022-12-31T09:22:41;28.85;;;19.95;;
61210;SDS011;47075;45.114;20.738;2022-12-31T09:25:14;32.80;;;20.75;;
61210;SDS011;47075;45.114;20.738;2022-12-31T09:30:27;28.08;;;20.17;;
61210;SDS011;47075;45.114;20.738;2022-12-31T09:35:51;30.13;;;20.48;;
61210;SDS011;47075;45.114;20.738;2022-12-31T09:38:20;33.70;;;22.08;;
61210;SDS011;47075;45.114;20.738;2022-12-31T09:49:22;42.17;;;31.60;;
61210;SDS011;47075;45.114;20.738;2022-12-31T09:51:30;43.92;;;37.05;;
61210;SDS011;47075;45.114;20.738;2022-12-31T09:59:34;38.90;;;31.30;;
61210;SDS011;47075;45.114;20.738;2022-12-31T10:02:24;35.00;;;26.48;;
61210;SDS011;47075;45.114;20.738;2022-12-31T10:10:23;28.17;;;20.88;;
61210;SDS011;47075;45.114;20.738;2022-12-31T10:15:47;31.08;;;22.58;;
61210;SDS011;47075;45.114;20.738;2022-12-31T10:26:25;33.33;;;25.45;;
61210;SDS011;47075;45.114;20.738;2022-12-31T10:28:53;29.77;;;21.73;;
61210;SDS011;47075;45.114;20.738;2022-12-31T10:36:19;32.60;;;23.45;;
61210;SDS011;47075;45.114;20.738;2022-12-31T10:57:00;44.15;;;35.08;;
61210;SDS011;47075;45.114;20.738;2022-12-31T10:59:51;41.05;;;29.75;;
61210;SDS011;47075;45.114;20.738;2022-12-31T11:28:20;32.28;;;22.83;;
61210;SDS011;47075;45.114;20.738;2022-12-31T11:41:45;38.13;;;27.85;;
61210;SDS011;47075;45.114;20.738;2022-12-31T11:44:23;32.65;;;23.90;;
61210;SDS011;47075;45.114;20.738;2022-12-31T11:49:58;31.92;;;23.98;;
61210;SDS011;47075;45.114;20.738;2022-12-31T11:52:43;32.30;;;24.50;;
61210;SDS011;47075;45.114;20.738;2022-12-31T11:55:22;33.17;;;25.75;;
61210;SDS011;47075;45.114;20.738;2022-12-31T11:57:50;31.50;;;22.98;;
61210;SDS011;47075;45.114;20.738;2022-12-31T12:00:18;29.67;;;21.95;;
61210;SDS011;47075;45.114;20.738;2022-12-31T12:02:52;32.15;;;22.35;;
61210;SDS011;47075;45.114;20.738;2022-12-31T12:05:22;33.70;;;24.58;;
61210;SDS011;47075;45.114;20.738;2022-12-31T12:07:48;27.90;;;20.67;;
61210;SDS011;47075;45.114;20.738;2022-12-31T12:10:31;27.52;;;18.58;;
61210;SDS011;47075;45.114;20.738;2022-12-31T12:12:58;25.63;;;18.15;;
61210;SDS011;47075;45.114;20.738;2022-12-31T12:15:29;23.00;;;17.38;;
61210;SDS011;47075;45.114;20.738;2022-12-31T12:17:57;24.55;;;16.30;;
61210;SDS011;47075;45.114;20.738;2022-12-31T12:20:28;21.65;;;16.38;;
61210;SDS011;47075;45.114;20.738;2022-12-31T12:22:56;48.03;;;29.13;;
61210;SDS011;47075;45.114;20.738;2022-12-31T12:25:24;22.05;;;16.27;;
61210;SDS011;47075;45.114;20.738;2022-12-31T12:27:50;43.60;;;25.98;;
61210;SDS011;47075;45.114;20.738;2022-12-31T12:30:21;25.55;;;17.45;;
61210;SDS011;47075;45.114;20.738;2022-12-31T12:33:12;25.42;;;17.77;;
61210;SDS011;47075;45.114;20.738;2022-12-31T12:35:36;27.85;;;18.92;;
61210;SDS011;47075;45.114;20.738;2022-12-31T12:38:14;24.58;;;17.33;;
61210;SDS011;47075;45.114;20.738;2022-12-31T12:40:41;21.83;;;15.65;;
61210;SDS011;47075;45.114;20.738;2022-12-31T12:43:20;24.17;;;16.08;;
61210;SDS011;47075;45.114;20.738;2022-12-31T12:45:46;24.63;;;18.15;;
61210;SDS011;47075;45.114;20.738;2022-12-31T12:48:16;26.83;;;18.50;;
61210;SDS011;47075;45.114;20.738;2022-12-31T12:50:44;28.98;;;18.25;;
61210;SDS011;47075;45.114;20.738;2022-12-31T13:00:45;43.58;;;25.70;;
61210;SDS011;47075;45.114;20.738;2022-12-31T13:06:18;25.98;;;17.20;;
61210;SDS011;47075;45.114;20.738;2022-12-31T13:13:52;24.40;;;16.42;;
61210;SDS011;47075;45.114;20.738;2022-12-31T13:16:33;23.90;;;16.00;;
61210;SDS011;47075;45.114;20.738;2022-12-31T13:21:39;25.90;;;17.10;;
61210;SDS011;47075;45.114;20.738;2022-12-31T13:29:34;26.50;;;18.17;;
61210;SDS011;47075;45.114;20.738;2022-12-31T13:32:01;37.97;;;29.52;;
61210;SDS011;47075;45.114;20.738;2022-12-31T13:34:35;37.33;;;27.00;;
61210;SDS011;47075;45.114;20.738;2022-12-31T13:37:45;28.75;;;20.95;;
61210;SDS011;47075;45.114;20.738;2022-12-31T13:40:12;30.15;;;20.75;;
61210;SDS011;47075;45.114;20.738;2022-12-31T13:42:42;28.60;;;18.38;;
61210;SDS011;47075;45.114;20.738;2022-12-31T13:45:15;27.98;;;18.63;;
61210;SDS011;47075;45.114;20.738;2022-12-31T13:47:48;26.08;;;19.15;;
61210;SDS011;47075;45.114;20.738;2022-12-31T13:55:40;25.63;;;17.52;;
61210;SDS011;47075;45.114;20.738;2022-12-31T13:58:29;30.35;;;19.77;;
61210;SDS011;47075;45.114;20.738;2022-12-31T14:01:00;29.92;;;20.90;;
61210;SDS011;47075;45.114;20.738;2022-12-31T14:06:02;38.80;;;24.48;;
61210;SDS011;47075;45.114;20.738;2022-12-31T14:08:30;32.22;;;23.38;;
61210;SDS011;47075;45.114;20.738;2022-12-31T14:11:02;34.50;;;24.35;;
61210;SDS011;47075;45.114;20.738;2022-12-31T14:18:26;33.00;;;24.42;;
61210;SDS011;47075;45.114;20.738;2022-12-31T14:21:17;37.20;;;23.88;;
61210;SDS011;47075;45.114;20.738;2022-12-31T14:24:05;36.03;;;25.42;;
61210;SDS011;47075;45.114;20.738;2022-12-31T14:26:34;33.33;;;24.25;;
61210;SDS011;47075;45.114;20.738;2022-12-31T14:34:08;41.33;;;28.20;;
61210;SDS011;47075;45.114;20.738;2022-12-31T14:41:57;44.75;;;30.52;;
61210;SDS011;47075;45.114;20.738;2022-12-31T14:44:39;39.83;;;29.73;;
61210;SDS011;47075;45.114;20.738;2022-12-31T14:54:37;43.33;;;31.23;;
61210;SDS011;47075;45.114;20.738;2022-12-31T14:57:10;49.03;;;32.33;;
61210;SDS011;47075;45.114;20.738;2022-12-31T14:59:53;47.05;;;32.53;;
61210;SDS011;47075;45.114;20.738;2022-12-31T15:02:30;45.77;;;34.47;;
61210;SDS011;47075;45.114;20.738;2022-12-31T15:07:39;45.67;;;32.83;;
61210;SDS011;47075;45.114;20.738;2022-12-31T15:18:20;54.63;;;41.58;;
61210;SDS011;47075;45.114;20.738;2022-12-31T15:23:34;42.25;;;31.70;;
61210;SDS011;47075;45.114;20.738;2022-12-31T15:26:01;40.38;;;30.85;;
61210;SDS011;47075;45.114;20.738;2022-12-31T15:28:36;40.60;;;28.52;;
61210;SDS011;47075;45.114;20.738;2022-12-31T15:33:39;37.63;;;26.95;;
61210;SDS011;47075;45.114;20.738;2022-12-31T15:36:13;35.05;;;26.58;;
61210;SDS011;47075;45.114;20.738;2022-12-31T15:38:40;36.15;;;25.98;;
61210;SDS011;47075;45.114;20.738;2022-12-31T15:41:13;37.97;;;28.83;;
61210;SDS011;47075;45.114;20.738;2022-12-31T15:46:17;42.33;;;33.03;;
61210;SDS011;47075;45.114;20.738;2022-12-31T15:48:47;34.40;;;26.85;;
61210;SDS011;47075;45.114;20.738;2022-12-31T15:51:18;37.60;;;28.33;;
61210;SDS011;47075;45.114;20.738;2022-12-31T15:53:46;82.30;;;57.63;;
61210;SDS011;47075;45.114;20.738;2022-12-31T15:59:20;47.13;;;33.80;;
61210;SDS011;47075;45.114;20.738;2022-12-31T16:01:47;48.95;;;35.70;;
61210;SDS011;47075;45.114;20.738;2022-12-31T16:04:21;42.00;;;32.60;;
61210;SDS011;47075;45.114;20.738;2022-12-31T16:06:48;36.47;;;27.37;;
61210;SDS011;47075;45.114;20.738;2022-12-31T16:09:17;31.50;;;23.85;;
61210;SDS011;47075;45.114;20.738;2022-12-31T16:11:44;34.00;;;24.90;;
61210;SDS011;47075;45.114;20.738;2022-12-31T16:14:19;38.50;;;28.52;;
61210;SDS011;47075;45.114;20.738;2022-12-31T16:16:55;33.05;;;24.45;;
61210;SDS011;47075;45.114;20.738;2022-12-31T16:19:43;34.53;;;24.95;;
61210;SDS011;47075;45.114;20.738;2022-12-31T16:22:16;33.92;;;24.05;;
61210;SDS011;47075;45.114;20.738;2022-12-31T16:24:42;39.75;;;28.23;;
61210;SDS011;47075;45.114;20.738;2022-12-31T16:27:11;42.33;;;29.95;;
61210;SDS011;47075;45.114;20.738;2022-12-31T16:29:40;38.28;;;27.67;;
61210;SDS011;47075;45.114;20.738;2022-12-31T16:32:09;52.22;;;34.50;;
61210;SDS011;47075;45.114;20.738;2022-12-31T16:34:38;42.42;;;29.45;;
61210;SDS011;47075;45.114;20.738;2022-12-31T16:37:05;46.22;;;32.03;;
61210;SDS011;47075;45.114;20.738;2022-12-31T16:39:37;47.80;;;31.73;;
61210;SDS011;47075;45.114;20.738;2022-12-31T16:42:12;39.90;;;28.30;;
61210;SDS011;47075;45.114;20.738;2022-12-31T16:44:39;42.70;;;29.15;;
61210;SDS011;47075;45.114;20.738;2022-12-31T16:47:06;39.03;;;27.15;;
61210;SDS011;47075;45.114;20.738;2022-12-31T16:49:34;58.50;;;36.95;;
61210;SDS011;47075;45.114;20.738;2022-12-31T16:52:06;58.70;;;39.00;;
61210;SDS011;47075;45.114;20.738;2022-12-31T16:54:36;60.92;;;37.80;;
61210;SDS011;47075;45.114;20.738;2022-12-31T16:57:03;76.82;;;41.10;;
61210;SDS011;47075;45.114;20.738;2022-12-31T16:59:32;69.38;;;38.38;;
61210;SDS011;47075;45.114;20.738;2022-12-31T17:01:59;60.17;;;36.00;;
61210;SDS011;47075;45.114;20.738;2022-12-31T17:04:26;60.97;;;34.83;;
61210;SDS011;47075;45.114;20.738;2022-12-31T17:06:52;60.70;;;33.67;;
61210;SDS011;47075;45.114;20.738;2022-12-31T17:09:19;52.90;;;32.60;;
61210;SDS011;47075;45.114;20.738;2022-12-31T17:14:22;56.05;;;35.28;;
61210;SDS011;47075;45.114;20.738;2022-12-31T17:19:32;47.47;;;31.58;;
61210;SDS011;47075;45.114;20.738;2022-12-31T17:21:58;44.88;;;28.23;;
61210;SDS011;47075;45.114;20.738;2022-12-31T17:24:25;42.40;;;27.60;;
61210;SDS011;47075;45.114;20.738;2022-12-31T17:26:52;43.13;;;28.80;;
61210;SDS011;47075;45.114;20.738;2022-12-31T17:29:19;41.72;;;26.48;;
61210;SDS011;47075;45.114;20.738;2022-12-31T17:32:02;36.53;;;25.50;;
61210;SDS011;47075;45.114;20.738;2022-12-31T17:34:33;37.00;;;25.48;;
61210;SDS011;47075;45.114;20.738;2022-12-31T17:39:40;39.05;;;25.20;;
61210;SDS011;47075;45.114;20.738;2022-12-31T17:42:07;38.75;;;24.55;;
61210;SDS011;47075;45.114;20.738;2022-12-31T17:44:35;36.58;;;24.60;;
61210;SDS011;47075;45.114;20.738;2022-12-31T17:47:03;35.55;;;23.77;;
61210;SDS011;47075;45.114;20.738;2022-12-31T17:49:29;40.08;;;26.20;;
61210;SDS011;47075;45.114;20.738;2022-12-31T17:51:55;40.33;;;27.90;;
61210;SDS011;47075;45.114;20.738;2022-12-31T17:54:22;38.95;;;27.42;;
61210;SDS011;47075;45.114;20.738;2022-12-31T17:56:48;52.63;;;32.65;;
61210;SDS011;47075;45.114;20.738;2022-12-31T17:59:15;49.47;;;31.98;;
61210;SDS011;47075;45.114;20.738;2022-12-31T18:01:42;165.50;;;79.72;;
61210;SDS011;47075;45.114;20.738;2022-12-31T18:04:12;43.75;;;28.23;;
61210;SDS011;47075;45.114;20.738;2022-12-31T18:06:38;54.13;;;35.42;;
61210;SDS011;47075;45.114;20.738;2022-12-31T18:09:04;42.13;;;28.08;;
61210;SDS011;47075;45.114;20.738;2022-12-31T18:11:30;40.20;;;26.67;;
61210;SDS011;47075;45.114;20.738;2022-12-31T18:13:57;43.45;;;27.98;;
61210;SDS011;47075;45.114;20.738;2022-12-31T18:16:23;42.45;;;26.95;;
61210;SDS011;47075;45.114;20.738;2022-12-31T18:18:49;42.33;;;26.92;;
61210;SDS011;47075;45.114;20.738;2022-12-31T18:21:26;38.05;;;26.30;;
61210;SDS011;47075;45.114;20.738;2022-12-31T18:23:52;37.00;;;25.08;;
61210;SDS011;47075;45.114;20.738;2022-12-31T18:26:19;39.33;;;26.77;;
61210;SDS011;47075;45.114;20.738;2022-12-31T18:28:46;38.25;;;26.35;;
61210;SDS011;47075;45.114;20.738;2022-12-31T18:31:13;36.15;;;25.83;;
61210;SDS011;47075;45.114;20.738;2022-12-31T18:33:41;41.72;;;26.65;;
61210;SDS011;47075;45.114;20.738;2022-12-31T18:36:11;37.95;;;25.80;;
61210;SDS011;47075;45.114;20.738;2022-12-31T18:38:37;38.40;;;26.90;;
61210;SDS011;47075;45.114;20.738;2022-12-31T18:41:03;41.78;;;28.45;;
61210;SDS011;47075;45.114;20.738;2022-12-31T18:43:30;43.17;;;27.92;;
61210;SDS011;47075;45.114;20.738;2022-12-31T18:45:56;40.22;;;27.55;;